Time;durP1;ratioP1;P1;durP2;ratioP2;P2;SDS_P1;SDS_P2;PMS_P1;PMS_P2;Temp;Humidity;BMP_temperature;BMP_pressure;BME280_temperature;BME280_humidity;BME280_pressure;Samples;Min_cycle;Max_cycle;Signal;HPM_P1;HPM_P2
2023/10/14 00:02:21;;;;;;;1999.90;999.90;;;20.20;99.90;;;;;;5095035;28;20570;-70
2023/10/14 00:04:46;;;;;;;1999.90;999.90;;;20.20;99.90;;;;;;5094866;28;20452;-70
2023/10/14 00:07:17;;;;;;;1999.90;999.90;;;20.20;99.90;;;;;;5094865;28;20492;-70
2023/10/14 00:09:43;;;;;;;1999.90;999.90;;;20.20;99.90;;;;;;5094892;28;20177;-70
2023/10/14 00:12:20;;;;;;;1999.90;999.90;;;20.20;99.90;;;;;;5094639;28;20448;-70
2023/10/14 00:14:45;;;;;;;1999.90;999.90;;;20.20;99.90;;;;;;5094853;28;20397;-70
2023/10/14 00:17:18;;;;;;;1999.90;999.90;;;20.20;99.90;;;;;;5094750;28;20413;-70
2023/10/14 00:19:49;;;;;;;1999.90;999.90;;;20.30;99.90;;;;;;5094481;28;20180;-70
2023/10/14 00:22:17;;;;;;;1999.90;999.90;;;20.30;99.90;;;;;;5094633;28;20426;-70
2023/10/14 00:24:43;;;;;;;1999.90;999.90;;;20.30;99.90;;;;;;5094544;28;20451;-70
2023/10/14 00:27:09;;;;;;;1999.90;999.90;;;20.20;99.90;;;;;;5094599;28;20454;-70
2023/10/14 00:29:35;;;;;;;1999.90;999.90;;;20.30;99.90;;;;;;5094384;28;20163;-69
2023/10/14 00:32:03;;;;;;;1999.90;999.90;;;20.20;99.90;;;;;;5094312;28;20217;-69
2023/10/14 00:34:29;;;;;;;1999.90;999.90;;;19.90;99.90;;;;;;5094438;28;20824;-69
2023/10/14 00:36:56;;;;;;;1999.90;999.90;;;19.50;99.90;;;;;;5094497;28;20790;-69
2023/10/14 00:39:27;;;;;;;1999.90;999.90;;;19.20;99.90;;;;;;5094241;28;20412;-69
2023/10/14 00:41:53;;;;;;;1999.90;999.90;;;19.00;99.90;;;;;;5094278;28;20809;-69
2023/10/14 00:44:21;;;;;;;1999.90;999.90;;;18.90;99.90;;;;;;5094200;28;20952;-69
2023/10/14 00:46:50;;;;;;;1999.90;999.90;;;18.80;99.90;;;;;;5094018;28;20415;-69
2023/10/14 00:49:17;;;;;;;1999.90;999.90;;;18.80;99.90;;;;;;5092784;28;20500;-70
2023/10/14 00:51:45;;;;;;;1999.90;999.90;;;18.80;99.90;;;;;;5094127;28;20840;-70
2023/10/14 00:54:13;;;;;;;1999.90;999.90;;;18.80;99.90;;;;;;5094241;28;20458;-70
2023/10/14 00:56:47;;;;;;;1999.90;999.90;;;18.80;99.90;;;;;;5094074;28;20904;-70
2023/10/14 00:59:14;;;;;;;1999.90;999.90;;;18.80;99.90;;;;;;5093736;28;20414;-70
2023/10/14 01:01:55;;;;;;;1999.90;999.90;;;18.90;99.90;;;;;;5093707;28;21016;-70
2023/10/14 01:04:31;;;;;;;1999.90;999.90;;;18.90;99.90;;;;;;5093889;28;20444;-70
2023/10/14 01:12:20;;;;;;;1999.90;999.90;;;18.90;99.90;;;;;;5093820;28;20454;-71
2023/10/14 01:14:52;;;;;;;1999.90;999.90;;;18.80;99.90;;;;;;5093684;28;20413;-71
2023/10/14 01:17:30;;;;;;;1999.90;999.90;;;18.80;99.90;;;;;;5093731;28;20400;-71
2023/10/14 01:20:17;;;;;;;1999.90;999.90;;;18.70;99.90;;;;;;5093375;28;20452;-72
2023/10/14 01:22:57;;;;;;;1999.90;999.90;;;18.60;99.90;;;;;;5093533;28;20831;-71
2023/10/14 01:25:30;;;;;;;1999.90;999.90;;;18.20;99.90;;;;;;5093497;28;20453;-70
2023/10/14 01:27:59;;;;;;;1999.90;999.90;;;17.80;99.90;;;;;;5093287;28;20401;-69
2023/10/14 01:30:26;;;;;;;1999.90;999.90;;;17.50;99.90;;;;;;5093291;28;20905;-69
2023/10/14 01:32:56;;;;;;;1999.90;999.90;;;17.30;99.90;;;;;;5093545;28;20416;-69
2023/10/14 01:37:48;;;;;;;1999.90;999.90;;;17.10;99.90;;;;;;5093100;28;21175;-69
2023/10/14 01:42:49;;;;;;;1999.90;999.90;;;17.00;99.90;;;;;;5093109;28;20426;-69
2023/10/14 01:45:21;;;;;;;1999.90;999.90;;;17.00;99.90;;;;;;5092887;28;20608;-70
2023/10/14 01:48:00;;;;;;;1999.90;999.90;;;17.00;99.90;;;;;;5092934;28;20895;-69
2023/10/14 01:50:26;;;;;;;1999.90;999.90;;;16.90;99.90;;;;;;5092947;28;20790;-69
2023/10/14 01:52:53;;;;;;;1999.90;999.90;;;16.90;99.90;;;;;;5092915;28;20412;-69
2023/10/14 01:55:20;;;;;;;1999.90;999.90;;;16.90;99.90;;;;;;5092843;28;20252;-69
2023/10/14 01:57:47;;;;;;;1999.90;999.90;;;16.90;99.90;;;;;;5092816;28;20444;-70
2023/10/14 02:00:24;;;;;;;1999.90;999.90;;;17.00;99.90;;;;;;5092391;28;20426;-68
2023/10/14 02:03:00;;;;;;;1999.90;999.90;;;17.00;99.90;;;;;;5092814;28;20429;-69
2023/10/14 02:05:26;;;;;;;1999.90;999.90;;;17.00;99.90;;;;;;5092580;28;20508;-69
2023/10/14 02:07:52;;;;;;;1999.90;999.90;;;17.00;99.90;;;;;;5092400;28;20502;-69
2023/10/14 02:10:18;;;;;;;1999.90;999.90;;;17.00;99.90;;;;;;5092657;28;20965;-69
2023/10/14 02:12:43;;;;;;;1999.90;999.90;;;17.00;99.90;;;;;;5092554;28;20426;-69
2023/10/14 02:15:10;;;;;;;1999.90;999.90;;;17.00;99.90;;;;;;5092494;28;20541;-66
2023/10/14 02:17:36;;;;;;;1999.90;999.90;;;16.60;99.90;;;;;;5092517;28;20178;-67
2023/10/14 02:20:19;;;;;;;1999.90;999.90;;;16.20;99.90;;;;;;5092223;28;20892;-68
2023/10/14 02:22:46;;;;;;;1999.90;999.90;;;15.90;99.90;;;;;;5092581;28;20247;-68
2023/10/14 02:25:15;;;;;;;1999.90;999.90;;;15.60;99.90;;;;;;5092417;28;20465;-69
2023/10/14 02:27:44;;;;;;;1999.90;999.90;;;15.30;99.90;;;;;;5092235;28;20924;-69
2023/10/14 02:30:10;;;;;;;1999.90;999.90;;;15.00;99.90;;;;;;5092090;28;20461;-68
2023/10/14 02:32:36;;;;;;;1999.90;999.90;;;14.80;99.90;;;;;;5092245;28;20427;-68
2023/10/14 02:35:02;;;;;;;1999.90;999.90;;;14.50;99.90;;;;;;5092121;28;20453;-69
2023/10/14 02:37:27;;;;;;;1999.90;999.90;;;14.40;99.90;;;;;;5092152;28;20214;-68
2023/10/14 02:39:53;;;;;;;1999.90;999.90;;;14.30;99.90;;;;;;5092006;28;20247;-69
2023/10/14 02:42:19;;;;;;;1999.90;999.90;;;14.30;99.90;;;;;;5092000;28;20199;-69
2023/10/14 02:44:46;;;;;;;1999.90;999.90;;;14.30;99.90;;;;;;5092047;28;20211;-69
2023/10/14 02:47:13;;;;;;;1999.90;999.90;;;14.30;99.90;;;;;;5092002;28;20179;-68
2023/10/14 02:49:41;;;;;;;1999.90;999.90;;;14.30;99.90;;;;;;5091773;28;20559;-68
2023/10/14 02:52:12;;;;;;;1999.90;999.90;;;14.30;99.90;;;;;;5091899;28;20561;-68
2023/10/14 02:54:44;;;;;;;1999.90;999.90;;;14.20;99.90;;;;;;5092173;28;20483;-68
2023/10/14 02:57:13;;;;;;;1999.90;999.90;;;14.20;99.90;;;;;;5092028;28;20402;-68
2023/10/14 03:02:14;;;;;;;1999.90;999.90;;;14.20;99.90;;;;;;5091834;28;20428;-68
2023/10/14 03:07:27;;;;;;;1999.90;999.90;;;14.20;99.90;;;;;;5091988;28;20408;-69
2023/10/14 03:12:40;;;;;;;1999.90;999.90;;;14.20;99.90;;;;;;5092923;28;20431;-68
2023/10/14 03:15:19;;;;;;;1999.90;999.90;;;14.20;99.90;;;;;;5095878;28;20468;-68
2023/10/14 03:18:04;;;;;;;1999.90;999.90;;;14.20;99.90;;;;;;5096256;28;20539;-67
2023/10/14 03:23:19;;;;;;;1999.90;999.90;;;14.20;99.90;;;;;;5097230;28;20404;-68
2023/10/14 03:25:47;;;;;;;1999.90;999.90;;;14.20;99.90;;;;;;5096485;28;20463;-67
2023/10/14 03:30:46;;;;;;;1999.90;999.90;;;14.10;99.90;;;;;;5096280;28;20768;-68
2023/10/14 03:33:14;;;;;;;1999.90;999.90;;;14.10;99.90;;;;;;5095902;28;20179;-67
2023/10/14 03:35:42;;;;;;;1999.90;999.90;;;14.10;99.90;;;;;;5096126;28;20423;-67
2023/10/14 03:38:22;;;;;;;1999.90;999.90;;;14.10;99.90;;;;;;5095907;28;20406;-68
2023/10/14 03:43:15;;;;;;;1999.90;999.90;;;13.60;99.90;;;;;;5095616;28;20438;-69
2023/10/14 03:45:56;;;;;;;1999.90;999.90;;;13.50;99.90;;;;;;5095288;28;20685;-68
2023/10/14 03:48:30;;;;;;;1999.90;999.90;;;13.40;99.90;;;;;;5095189;28;20462;-68
2023/10/14 03:51:04;;;;;;;1999.90;999.90;;;13.40;99.90;;;;;;5095400;28;20430;-68
2023/10/14 03:53:33;;;;;;;1999.90;999.90;;;13.40;99.90;;;;;;5095400;28;20476;-69
2023/10/14 03:56:03;;;;;;;1999.90;999.90;;;13.30;99.90;;;;;;5095158;28;20406;-69
2023/10/14 03:58:32;;;;;;;1999.90;999.90;;;13.30;99.90;;;;;;5095164;28;20431;-68
2023/10/14 04:01:02;;;;;;;1999.90;999.90;;;13.30;99.90;;;;;;5095374;28;20786;-68
2023/10/14 04:03:40;;;;;;;1999.90;999.90;;;13.10;99.90;;;;;;5095300;28;20409;-68
2023/10/14 04:06:15;;;;;;;1999.90;999.90;;;12.70;99.90;;;;;;5095217;28;20506;-68
2023/10/14 04:08:47;;;;;;;1999.90;999.90;;;12.60;99.90;;;;;;5095087;28;20444;-67
2023/10/14 04:11:14;;;;;;;1999.90;999.90;;;12.50;99.90;;;;;;5094904;28;20507;-68
2023/10/14 04:13:51;;;;;;;1999.90;999.90;;;12.40;99.90;;;;;;5095185;28;20494;-68
2023/10/14 04:16:27;;;;;;;1999.90;999.90;;;12.40;99.90;;;;;;5094954;28;20481;-68
2023/10/14 04:19:07;;;;;;;1999.90;999.90;;;12.40;99.90;;;;;;5094649;28;20405;-69
2023/10/14 04:21:36;;;;;;;1999.90;999.90;;;12.40;99.90;;;;;;5094930;28;20555;-69
2023/10/14 04:26:34;;;;;;;1999.90;999.90;;;12.50;99.90;;;;;;5094804;28;20411;-69
2023/10/14 04:29:03;;;;;;;1999.90;999.90;;;12.60;99.90;;;;;;5094516;28;20508;-68
2023/10/14 04:31:40;;;;;;;1999.90;999.90;;;12.60;99.90;;;;;;5094478;28;20426;-68
2023/10/14 04:34:15;;;;;;;1999.90;999.90;;;12.70;99.90;;;;;;5094660;28;20408;-68
2023/10/14 04:36:56;;;;;;;1999.90;999.90;;;12.80;99.90;;;;;;5094632;28;20408;-68
2023/10/14 04:39:27;;;;;;;1999.90;999.90;;;12.80;99.90;;;;;;5094500;28;20463;-67
2023/10/14 04:41:56;;;;;;;1999.90;999.90;;;12.90;99.90;;;;;;5094343;28;20949;-68
2023/10/14 04:44:23;;;;;;;1999.90;999.90;;;12.90;99.90;;;;;;5094441;28;20572;-68
2023/10/14 04:47:01;;;;;;;1999.90;999.90;;;13.00;99.90;;;;;;5094569;28;20810;-67
2023/10/14 04:49:42;;;;;;;1999.90;999.90;;;13.00;99.90;;;;;;5094119;28;20750;-68
2023/10/14 04:52:08;;;;;;;1999.90;999.90;;;13.00;99.90;;;;;;5094179;28;20438;-68
2023/10/14 04:54:34;;;;;;;1999.90;999.90;;;13.00;99.90;;;;;;5094340;28;20408;-68
2023/10/14 04:57:12;;;;;;;1999.90;999.90;;;13.00;99.90;;;;;;5094205;28;20436;-68
2023/10/14 04:59:37;;;;;;;1999.90;999.90;;;13.00;99.90;;;;;;5094089;28;21095;-67
2023/10/14 05:02:03;;;;;;;1999.90;999.90;;;13.00;99.90;;;;;;5093974;28;20479;-67
2023/10/14 05:04:30;;;;;;;1999.90;999.90;;;13.00;99.90;;;;;;5093976;28;20209;-68
2023/10/14 05:07:03;;;;;;;1999.90;999.90;;;13.00;99.90;;;;;;5093859;28;20160;-68
2023/10/14 05:09:39;;;;;;;1999.90;999.90;;;12.90;99.90;;;;;;5093829;28;20952;-67
2023/10/14 05:12:08;;;;;;;1999.90;999.90;;;12.90;99.90;;;;;;5093544;28;20531;-67
2023/10/14 05:14:36;;;;;;;1999.90;999.90;;;12.90;99.90;;;;;;5093724;28;20917;-67
2023/10/14 05:17:49;;;;;;;1999.90;999.90;;;12.90;99.90;;;;;;5093762;28;20409;-66
2023/10/14 05:19:48;;;;;;;1999.90;999.90;;;12.80;99.90;;;;;;5082474;28;20905;-67
2023/10/14 05:22:24;;;;;;;1999.90;999.90;;;12.70;99.90;;;;;;5093557;28;20440;-67
2023/10/14 05:25:03;;;;;;;1999.90;999.90;;;12.60;99.90;;;;;;5093611;28;21062;-66
2023/10/14 05:30:33;;;;;;;1999.90;999.90;;;12.50;99.90;;;;;;5070034;28;20415;-68
2023/10/14 05:33:13;;;;;;;1999.90;999.90;;;12.40;99.90;;;;;;5093617;28;20402;-68
2023/10/14 05:35:43;;;;;;;1999.90;999.90;;;12.40;99.90;;;;;;5092775;28;20488;-67
2023/10/14 05:38:14;;;;;;;1999.90;999.90;;;12.40;99.90;;;;;;5094567;28;20480;-68
2023/10/14 05:40:41;;;;;;;1999.90;999.90;;;12.20;99.90;;;;;;5099249;28;20927;-66
2023/10/14 05:43:07;;;;;;;1999.90;999.90;;;12.30;99.90;;;;;;5105474;28;20491;-68
2023/10/14 05:45:38;;;;;;;1999.90;999.90;;;12.30;99.90;;;;;;5113671;28;20452;-68
2023/10/14 05:48:07;;;;;;;1999.90;999.90;;;12.30;99.90;;;;;;5113987;28;20897;-67
2023/10/14 05:50:35;;;;;;;1999.90;999.90;;;12.40;99.90;;;;;;5114327;28;20440;-68
2023/10/14 05:53:01;;;;;;;1999.90;999.90;;;12.30;99.90;;;;;;5114180;28;20505;-66
2023/10/14 05:55:29;;;;;;;1999.90;999.90;;;12.30;99.90;;;;;;5114232;28;20441;-66
2023/10/14 05:58:00;;;;;;;1999.90;999.90;;;12.30;99.90;;;;;;5113732;28;20485;-68
2023/10/14 06:00:29;;;;;;;1999.90;999.90;;;12.30;99.90;;;;;;5113687;28;20410;-67
2023/10/14 06:02:56;;;;;;;1999.90;999.90;;;12.30;99.90;;;;;;5113789;28;20496;-68
2023/10/14 06:05:24;;;;;;;1999.90;999.90;;;12.30;99.90;;;;;;5113171;28;20454;-66
2023/10/14 06:07:59;;;;;;;1999.90;999.90;;;12.30;99.90;;;;;;5113245;28;20767;-67
2023/10/14 06:10:29;;;;;;;1999.90;999.90;;;12.40;99.90;;;;;;5113092;28;20517;-70
2023/10/14 06:12:58;;;;;;;1999.90;999.90;;;12.40;99.90;;;;;;5113322;28;20430;-68
2023/10/14 06:15:26;;;;;;;1999.90;999.90;;;12.40;99.90;;;;;;5113032;28;20404;-67
2023/10/14 06:17:54;;;;;;;1999.90;999.90;;;12.30;99.90;;;;;;5112749;28;20487;-69
2023/10/14 06:20:21;;;;;;;1999.90;999.90;;;12.40;99.90;;;;;;5113186;28;20424;-68
2023/10/14 06:22:46;;;;;;;1999.90;999.90;;;12.30;99.90;;;;;;5113024;28;20435;-67
2023/10/14 06:25:16;;;;;;;1999.90;999.90;;;12.20;99.90;;;;;;5113005;28;20817;-68
2023/10/14 06:27:46;;;;;;;1999.90;999.90;;;12.10;99.90;;;;;;5112969;28;20408;-68
2023/10/14 06:30:19;;;;;;;1999.90;999.90;;;12.10;99.90;;;;;;5112593;28;20404;-68
2023/10/14 06:32:49;;;;;;;1999.90;999.90;;;12.00;99.90;;;;;;5112699;28;20919;-68
2023/10/14 06:35:16;;;;;;;1999.90;999.90;;;12.00;99.90;;;;;;5112853;28;20817;-67
2023/10/14 06:37:43;;;;;;;1999.90;999.90;;;11.90;99.90;;;;;;5112708;28;20439;-70
2023/10/14 06:40:12;;;;;;;1999.90;999.90;;;11.90;99.90;;;;;;5112432;28;20411;-68
2023/10/14 06:42:43;;;;;;;1999.90;999.90;;;11.90;99.90;;;;;;5112633;28;20433;-69
2023/10/14 06:45:13;;;;;;;1999.90;999.90;;;11.90;99.90;;;;;;5112795;28;20554;-68
2023/10/14 06:47:51;;;;;;;1999.90;999.90;;;11.90;99.90;;;;;;5112823;28;20408;-67
2023/10/14 06:50:23;;;;;;;1999.90;999.90;;;12.00;99.90;;;;;;5112572;28;20401;-68
2023/10/14 06:52:53;;;;;;;1999.90;999.90;;;12.00;99.90;;;;;;5112440;28;20448;-68
2023/10/14 06:55:23;;;;;;;1999.90;999.90;;;12.00;99.90;;;;;;5112325;28;20423;-68
2023/10/14 06:57:53;;;;;;;1999.90;999.90;;;12.00;99.90;;;;;;5112464;28;20418;-72
2023/10/14 07:00:31;;;;;;;1999.90;999.90;;;11.90;99.90;;;;;;5112699;28;20503;-68
2023/10/14 07:02:59;;;;;;;1999.90;999.90;;;12.00;99.90;;;;;;5112395;28;20432;-68
2023/10/14 07:05:26;;;;;;;1999.90;999.90;;;12.00;99.90;;;;;;5112145;28;20460;-68
2023/10/14 07:07:52;;;;;;;1999.90;999.90;;;12.00;99.90;;;;;;5112293;28;20416;-67
2023/10/14 07:10:17;;;;;;;1999.90;999.90;;;11.90;99.90;;;;;;5112259;28;21216;-68
2023/10/14 07:12:43;;;;;;;1999.90;999.90;;;11.90;99.90;;;;;;5112611;28;20189;-68
2023/10/14 07:15:15;;;;;;;1999.90;999.90;;;12.00;99.90;;;;;;5112299;28;20188;-66
2023/10/14 07:17:42;;;;;;;1999.90;999.90;;;12.10;99.90;;;;;;5112482;28;20504;-68
2023/10/14 07:20:11;;;;;;;1999.90;999.90;;;12.00;99.90;;;;;;5112075;28;20498;-66
2023/10/14 07:22:42;;;;;;;1999.90;999.90;;;12.00;99.90;;;;;;5111926;28;20582;-67
2023/10/14 07:25:12;;;;;;;1999.90;999.90;;;12.10;99.90;;;;;;5112012;28;20458;-66
2023/10/14 07:27:38;;;;;;;1999.90;999.90;;;12.10;99.90;;;;;;5112164;28;20415;-66
2023/10/14 07:30:26;;;;;;;1999.90;999.90;;;12.10;99.90;;;;;;5111846;28;20392;-65
2023/10/14 07:32:52;;;;;;;1999.90;999.90;;;12.10;99.90;;;;;;5111887;28;20212;-65
2023/10/14 07:35:18;;;;;;;1999.90;999.90;;;12.10;99.90;;;;;;5112037;28;20404;-66
2023/10/14 07:37:48;;;;;;;1999.90;999.90;;;12.20;99.90;;;;;;5111929;28;20189;-65
2023/10/14 07:40:23;;;;;;;1999.90;999.90;;;12.20;99.90;;;;;;5111878;28;20458;-65
2023/10/14 07:43:05;;;;;;;1999.90;999.90;;;12.30;99.90;;;;;;5111815;28;20431;-67
2023/10/14 07:45:42;;;;;;;1999.90;999.90;;;12.30;99.90;;;;;;5111696;28;20448;-65
2023/10/14 07:48:09;;;;;;;1999.90;999.90;;;12.30;99.90;;;;;;5104937;28;20942;-65
2023/10/14 07:50:42;;;;;;;1999.90;999.90;;;12.40;99.90;;;;;;5102749;28;20431;-66
2023/10/14 07:53:12;;;;;;;1999.90;999.90;;;12.40;99.90;;;;;;5111896;28;20817;-66
2023/10/14 07:55:49;;;;;;;1999.90;999.90;;;12.40;99.90;;;;;;5100471;28;20917;-66
2023/10/14 07:58:16;;;;;;;1999.90;999.90;;;12.40;99.90;;;;;;5091462;28;20423;-66
2023/10/14 08:00:53;;;;;;;1999.90;999.90;;;12.60;99.90;;;;;;5095016;28;20414;-66
2023/10/14 08:03:27;;;;;;;1999.90;999.90;;;12.40;99.90;;;;;;5104402;28;20440;-67
2023/10/14 08:05:59;;;;;;;1999.90;999.90;;;12.40;99.90;;;;;;5115269;28;20619;-66
2023/10/14 08:08:30;;;;;;;1999.90;999.90;;;12.30;99.90;;;;;;5115138;28;20408;-66
2023/10/14 08:10:57;;;;;;;1999.90;999.90;;;12.30;99.90;;;;;;5115182;28;20448;-66
2023/10/14 08:13:23;;;;;;;1999.90;999.90;;;12.30;99.90;;;;;;5115443;28;20432;-66
2023/10/14 08:15:53;;;;;;;1999.90;999.90;;;12.30;99.90;;;;;;5115141;28;20405;-67
2023/10/14 08:18:23;;;;;;;1999.90;999.90;;;12.40;99.90;;;;;;5114998;28;20806;-66
2023/10/14 08:20:56;;;;;;;1999.90;999.90;;;12.50;99.90;;;;;;5115020;28;20431;-66
2023/10/14 08:23:25;;;;;;;1999.90;999.90;;;12.50;99.90;;;;;;5115262;28;20469;-67
2023/10/14 08:25:54;;;;;;;1999.90;999.90;;;12.40;99.90;;;;;;5104462;28;20952;-66
2023/10/14 08:28:33;;;;;;;1999.90;999.90;;;12.40;99.90;;;;;;5112164;28;20414;-67
2023/10/14 08:30:59;;;;;;;1999.90;999.90;;;12.50;99.90;;;;;;5114955;28;20416;-66
2023/10/14 08:33:28;;;;;;;1999.90;999.90;;;12.40;99.90;;;;;;5114863;28;20858;-66
2023/10/14 08:35:55;;;;;;;1999.90;999.90;;;12.40;99.90;;;;;;5114800;28;20407;-66
2023/10/14 08:38:27;;;;;;;1999.90;999.90;;;12.40;99.90;;;;;;5114748;28;20428;-66
2023/10/14 08:40:54;;;;;;;1999.90;999.90;;;12.40;99.90;;;;;;5114797;28;20860;-66
2023/10/14 08:43:25;;;;;;;1999.90;999.90;;;12.40;99.90;;;;;;5110469;28;20908;-68
2023/10/14 08:45:53;;;;;;;1999.90;999.90;;;12.40;99.90;;;;;;5087128;28;20462;-68
2023/10/14 08:48:23;;;;;;;1999.90;999.90;;;12.50;99.90;;;;;;5099206;28;20450;-68
2023/10/14 08:50:52;;;;;;;1999.90;999.90;;;12.60;99.90;;;;;;5106818;28;20419;-68
2023/10/14 08:53:21;;;;;;;1999.90;999.90;;;12.70;99.90;;;;;;5115523;28;20409;-69
2023/10/14 08:55:48;;;;;;;1999.90;999.90;;;12.80;99.90;;;;;;5115352;28;20411;-67
2023/10/14 08:58:14;;;;;;;1999.90;999.90;;;12.70;99.90;;;;;;5099002;28;20442;-68
2023/10/14 09:00:43;;;;;;;1999.90;999.90;;;12.70;99.90;;;;;;5089039;28;20425;-65
2023/10/14 09:03:10;;;;;;;1999.90;999.90;;;12.70;99.90;;;;;;5096707;28;20414;-68
2023/10/14 09:05:40;;;;;;;1999.90;999.90;;;12.70;99.90;;;;;;5079824;28;20466;-67
2023/10/14 09:08:17;;;;;;;1999.90;999.90;;;12.70;99.90;;;;;;5104772;28;20459;-69
2023/10/14 09:10:44;;;;;;;1999.90;999.90;;;12.80;99.90;;;;;;5099742;28;20504;-67
2023/10/14 09:13:11;;;;;;;1999.90;999.90;;;12.90;99.90;;;;;;5109143;28;20413;-68
2023/10/14 09:15:42;;;;;;;1999.90;999.90;;;13.00;99.90;;;;;;5109811;28;20415;-65
2023/10/14 09:18:13;;;;;;;1999.90;999.90;;;13.00;99.90;;;;;;5099181;28;20996;-68
2023/10/14 09:20:40;;;;;;;1999.90;999.90;;;13.00;99.90;;;;;;5098424;28;20417;-67
2023/10/14 09:23:16;;;;;;;1999.90;999.90;;;13.00;99.90;;;;;;5095695;28;20457;-69
2023/10/14 09:25:47;;;;;;;1999.90;999.90;;;13.10;99.90;;;;;;5068489;28;20448;-67
2023/10/14 09:28:13;;;;;;;1999.90;999.90;;;13.10;99.90;;;;;;5068378;28;20422;-66
2023/10/14 09:30:44;;;;;;;1999.90;999.90;;;13.30;99.90;;;;;;5069274;28;20414;-65
2023/10/14 09:33:15;;;;;;;1999.90;999.90;;;12.90;99.90;;;;;;5068705;28;20172;-67
2023/10/14 09:35:44;;;;;;;1999.90;999.90;;;13.00;99.90;;;;;;5068133;28;20422;-66
2023/10/14 09:38:14;;;;;;;1999.90;999.90;;;12.90;99.90;;;;;;5068319;28;20476;-69
2023/10/14 09:40:42;;;;;;;1999.90;999.90;;;13.10;99.90;;;;;;5075779;28;20847;-64
2023/10/14 09:43:10;;;;;;;1999.90;999.90;;;13.10;99.90;;;;;;5100812;28;20841;-66
2023/10/14 09:45:37;;;;;;;1999.90;999.90;;;13.20;99.90;;;;;;5108911;28;20514;-68
2023/10/14 09:48:04;;;;;;;1999.90;999.90;;;13.20;99.90;;;;;;5108619;28;20414;-68
2023/10/14 09:50:32;;;;;;;1999.90;999.90;;;13.30;99.90;;;;;;5109137;28;20414;-68
2023/10/14 09:53:00;;;;;;;1999.90;999.90;;;13.50;99.90;;;;;;5108937;28;20948;-68
2023/10/14 09:55:26;;;;;;;1999.90;999.90;;;13.50;99.90;;;;;;5108572;28;20846;-68
2023/10/14 09:57:53;;;;;;;1999.90;999.90;;;13.50;99.90;;;;;;5108839;28;20412;-66
2023/10/14 10:00:20;;;;;;;1999.90;999.90;;;13.50;99.90;;;;;;5109864;28;20408;-69
2023/10/14 10:02:50;;;;;;;1999.90;999.90;;;13.70;99.90;;;;;;5108595;28;20482;-66
2023/10/14 10:05:28;;;;;;;1999.90;999.90;;;14.10;99.90;;;;;;5108394;28;20530;-65
2023/10/14 10:08:24;;;;;;;1999.90;999.90;;;14.20;99.90;;;;;;5108397;28;20502;-68
2023/10/14 10:10:51;;;;;;;1999.90;999.90;;;14.10;99.90;;;;;;5108823;28;20536;-67
2023/10/14 10:13:17;;;;;;;1999.90;999.90;;;14.00;99.90;;;;;;5108397;28;20415;-68
2023/10/14 10:15:45;;;;;;;1999.90;999.90;;;13.90;99.90;;;;;;5108422;28;20415;-68
2023/10/14 10:18:16;;;;;;;1999.90;999.90;;;13.80;99.90;;;;;;5108826;28;20971;-64
2023/10/14 10:20:56;;;;;;;1999.90;999.90;;;13.80;99.90;;;;;;5109196;28;20416;-67
2023/10/14 10:23:24;;;;;;;1999.90;999.90;;;14.00;99.90;;;;;;5109018;28;20447;-66
2023/10/14 10:25:51;;;;;;;1999.90;999.90;;;14.30;99.90;;;;;;5108875;28;20929;-67
2023/10/14 10:28:26;;;;;;;1999.90;999.90;;;14.30;99.90;;;;;;5108569;28;20829;-68
2023/10/14 10:30:52;;;;;;;1999.90;999.90;;;14.60;99.90;;;;;;5108545;28;20963;-68
2023/10/14 10:33:18;;;;;;;1999.90;999.90;;;14.70;99.90;;;;;;5109048;28;20411;-66
2023/10/14 10:36:11;;;;;;;1999.90;999.90;;;14.60;99.90;;;;;;5108721;28;20423;-68
2023/10/14 10:38:37;;;;;;;1999.90;999.90;;;14.60;99.90;;;;;;5106343;28;20422;-68
2023/10/14 10:41:25;;;;;;;1999.90;999.90;;;14.70;99.90;;;;;;5109323;28;20419;-68
2023/10/14 10:43:53;;;;;;;1999.90;999.90;;;14.70;99.90;;;;;;5108543;28;20571;-68
2023/10/14 10:46:46;;;;;;;1999.90;999.90;;;14.90;99.90;;;;;;5108862;28;20863;-64
2023/10/14 10:49:13;;;;;;;1999.90;999.90;;;14.90;99.90;;;;;;5107889;28;20418;-68
2023/10/14 10:52:07;;;;;;;1999.90;999.90;;;14.70;99.90;;;;;;5107802;28;20427;-66
2023/10/14 10:54:34;;;;;;;1999.90;999.90;;;14.70;99.90;;;;;;5108670;28;20405;-67
2023/10/14 10:57:03;;;;;;;1999.90;999.90;;;14.60;99.90;;;;;;5107461;28;20402;-66
2023/10/14 10:59:29;;;;;;;1999.90;999.90;;;14.40;99.90;;;;;;5107742;28;20411;-66
2023/10/14 11:01:56;;;;;;;1999.90;999.90;;;14.30;99.90;;;;;;5108421;28;20518;-67
2023/10/14 11:04:22;;;;;;;1999.90;999.90;;;14.30;99.90;;;;;;5107886;28;20202;-66
2023/10/14 11:06:51;;;;;;;1999.90;999.90;;;14.20;99.90;;;;;;5107953;28;20417;-66
2023/10/14 11:09:17;;;;;;;1999.90;999.90;;;14.20;99.90;;;;;;5107936;28;20180;-71
2023/10/14 11:11:42;;;;;;;1999.90;999.90;;;14.10;99.90;;;;;;5107914;28;20872;-66
2023/10/14 11:14:18;;;;;;;1999.90;999.90;;;14.10;99.90;;;;;;5107832;28;20271;-66
2023/10/14 11:16:48;;;;;;;1999.90;999.90;;;14.10;99.90;;;;;;5107353;28;20252;-66
2023/10/14 11:19:13;;;;;;;1999.90;999.90;;;14.10;99.90;;;;;;5107351;28;20414;-68
2023/10/14 11:21:39;;;;;;;1999.90;999.90;;;14.30;99.90;;;;;;5108489;28;20488;-66
2023/10/14 11:24:08;;;;;;;1999.90;999.90;;;14.80;99.90;;;;;;5107360;28;20182;-67
2023/10/14 11:26:37;;;;;;;1999.90;999.90;;;15.80;99.90;;;;;;5107597;28;20423;-65
2023/10/14 11:29:03;;;;;;;1999.90;999.90;;;16.70;99.90;;;;;;5107930;28;20413;-69
2023/10/14 11:31:30;;;;;;;1999.90;999.90;;;17.30;95.40;;;;;;5107268;28;20444;-67
2023/10/14 11:34:01;;;;;;;1999.90;999.90;;;17.10;90.00;;;;;;5108212;28;20173;-66
2023/10/14 11:36:27;;;;;;;1999.90;999.90;;;16.70;90.40;;;;;;5110747;28;20487;-70
2023/10/14 11:38:58;;;;;;;1999.90;999.90;;;16.40;89.70;;;;;;5111629;28;20475;-67
2023/10/14 11:41:26;;;;;;;1999.90;999.90;;;16.00;93.10;;;;;;5111107;28;20439;-66
2023/10/14 11:43:52;;;;;;;1999.90;999.90;;;16.20;95.70;;;;;;5111036;28;20953;-69
2023/10/14 11:46:17;;;;;;;1999.90;999.90;;;17.10;95.30;;;;;;5111525;28;20459;-69
2023/10/14 11:48:49;;;;;;;1999.90;999.90;;;17.80;82.90;;;;;;5107122;28;20401;-67
2023/10/14 11:51:19;;;;;;;1999.90;999.90;;;17.80;74.20;;;;;;5099211;28;20298;-67
2023/10/14 11:53:50;;;;;;;1999.90;999.90;;;17.40;67.80;;;;;;5102385;28;20972;-67
2023/10/14 11:56:16;;;;;;;1999.90;999.90;;;17.50;69.80;;;;;;5111306;28;20463;-68
2023/10/14 11:58:42;;;;;;;1999.90;999.90;;;16.90;69.90;;;;;;5105656;28;20423;-65
2023/10/14 12:01:12;;;;;;;1999.90;999.90;;;16.60;71.10;;;;;;5092212;28;20456;-67
2023/10/14 12:03:38;;;;;;;1999.90;999.90;;;16.20;70.00;;;;;;5100510;28;20540;-68
2023/10/14 12:06:12;;;;;;;1999.90;999.90;;;15.80;76.50;;;;;;5105169;28;21003;-66
2023/10/14 12:08:38;;;;;;;1999.90;999.90;;;16.20;76.00;;;;;;5111100;28;20990;-64
2023/10/14 12:11:04;;;;;;;1999.90;999.90;;;16.90;78.30;;;;;;5102383;28;20539;-65
2023/10/14 12:13:31;;;;;;;1999.90;999.90;;;17.70;62.00;;;;;;5100285;28;20438;-67
2023/10/14 12:15:57;;;;;;;1999.90;999.90;;;18.30;61.00;;;;;;5110712;28;20838;-66
2023/10/14 12:18:23;;;;;;;1999.90;999.90;;;19.10;60.90;;;;;;5109844;28;20417;-66
2023/10/14 12:20:49;;;;;;;1999.90;999.90;;;20.00;49.40;;;;;;5111230;28;20488;-66
2023/10/14 12:23:19;;;;;;;1999.90;999.90;;;20.30;36.90;;;;;;5110597;28;20178;-66
2023/10/14 12:25:48;;;;;;;1999.90;999.90;;;20.60;38.60;;;;;;5110178;28;20855;-66
2023/10/14 12:28:24;;;;;;;1999.90;999.90;;;20.40;24.50;;;;;;5110474;28;20384;-69
2023/10/14 12:30:50;;;;;;;1999.90;999.90;;;20.30;21.90;;;;;;5099237;28;20428;-70
2023/10/14 12:33:19;;;;;;;1999.90;999.90;;;19.90;21.40;;;;;;5106029;28;20408;-64
2023/10/14 12:35:45;;;;;;;1999.90;999.90;;;20.00;24.40;;;;;;5110249;28;20413;-68
2023/10/14 12:38:15;;;;;;;1999.90;999.90;;;20.20;22.10;;;;;;5109919;28;20973;-69
2023/10/14 12:40:43;;;;;;;1999.90;999.90;;;20.20;19.60;;;;;;5110824;28;20427;-66
2023/10/14 12:43:12;;;;;;;1999.90;999.90;;;19.90;21.20;;;;;;5110219;28;20427;-66
2023/10/14 12:45:38;;;;;;;1999.90;999.90;;;19.70;16.60;;;;;;5109436;28;20457;-66